createdAt,value
2022-12-31T00:07:20.627Z,0
2022-12-31T00:17:21.277Z,0
2022-12-31T00:27:22.240Z,0
2022-12-31T00:37:22.549Z,0
2022-12-31T00:47:22.869Z,0
2022-12-31T00:57:23.741Z,0
2022-12-31T01:07:24.468Z,0
2022-12-31T01:17:25.380Z,13
2022-12-31T01:27:25.910Z,0
2022-12-31T01:47:27.232Z,0
2022-12-31T01:57:27.726Z,10
2022-12-31T02:07:28.331Z,0
2022-12-31T02:17:28.548Z,0
2022-12-31T02:27:29.405Z,0
2022-12-31T02:37:29.862Z,0
2022-12-31T02:47:30.100Z,23
2022-12-31T02:57:30.759Z,13
2022-12-31T03:07:31.332Z,19
2022-12-31T03:17:31.805Z,0
2022-12-31T03:27:31.923Z,27
2022-12-31T03:37:32.692Z,0
2022-12-31T03:47:32.924Z,5
2022-12-31T03:57:33.089Z,0
2022-12-31T04:07:33.645Z,50
2022-12-31T04:47:35.936Z,0
2022-12-31T04:57:36.100Z,49
2022-12-31T05:07:36.765Z,0
2022-12-31T05:17:37.791Z,0
2022-12-31T05:27:38.701Z,0
2022-12-31T05:37:39.704Z,0
2022-12-31T05:47:39.792Z,0
2022-12-31T05:57:40.213Z,0
2022-12-31T06:17:41.517Z,0
2022-12-31T06:27:41.930Z,0
2022-12-31T06:37:42.229Z,0
2022-12-31T06:47:42.412Z,0
2022-12-31T06:57:42.733Z,0
2022-12-31T07:07:43.051Z,0
2022-12-31T07:17:43.269Z,0
2022-12-31T07:27:43.498Z,0
2022-12-31T07:37:43.936Z,0
2022-12-31T07:47:44.233Z,0
2022-12-31T07:57:50.650Z,0
2022-12-31T08:07:51.691Z,0
2022-12-31T08:27:52.679Z,16
2022-12-31T08:37:53.036Z,23
2022-12-31T08:47:58.076Z,26
2022-12-31T08:57:54.478Z,28
2022-12-31T09:07:55.568Z,37
2022-12-31T09:17:55.949Z,31
2022-12-31T09:27:56.654Z,38
2022-12-31T09:37:57.483Z,35
2022-12-31T09:47:58.391Z,37
2022-12-31T09:57:59.411Z,34
2022-12-31T10:07:59.804Z,28
2022-12-31T10:18:00.747Z,30
2022-12-31T10:28:01.300Z,30
2022-12-31T10:48:02.626Z,44
2022-12-31T10:58:04.399Z,50
2022-12-31T11:08:04.241Z,48
2022-12-31T11:18:04.752Z,49
2022-12-31T11:28:05.179Z,50
2022-12-31T11:38:05.744Z,53
2022-12-31T11:48:30.892Z,47
2022-12-31T11:58:07.082Z,51
2022-12-31T12:08:08.090Z,53
2022-12-31T12:18:08.699Z,55
2022-12-31T12:28:09.404Z,40
2022-12-31T12:38:09.638Z,0
2022-12-31T12:48:10.241Z,0
2022-12-31T12:58:12.879Z,0
2022-12-31T13:08:11.265Z,0
2022-12-31T13:18:12.172Z,0
2022-12-31T13:28:12.639Z,0
2022-12-31T13:38:13.434Z,0
2022-12-31T13:48:13.831Z,3
2022-12-31T13:58:14.809Z,27
2022-12-31T14:08:15.022Z,45
2022-12-31T14:18:15.639Z,21
2022-12-31T14:28:16.544Z,46
2022-12-31T14:38:17.399Z,64
2022-12-31T14:48:21.818Z,76
2022-12-31T14:58:28.016Z,67
2022-12-31T15:08:19.598Z,44
2022-12-31T15:18:20.481Z,13
2022-12-31T15:28:21.471Z,0
2022-12-31T15:38:21.729Z,0
2022-12-31T15:48:21.775Z,0
2022-12-31T15:58:22.452Z,21
2022-12-31T16:08:23.156Z,28
2022-12-31T16:18:23.783Z,40
2022-12-31T16:28:24.705Z,58
2022-12-31T16:38:25.115Z,64
2022-12-31T16:48:25.857Z,65
2022-12-31T16:58:26.709Z,68
2022-12-31T17:08:27.430Z,67
2022-12-31T17:18:27.973Z,72
2022-12-31T17:28:28.996Z,70
2022-12-31T17:38:29.280Z,78
2022-12-31T17:48:29.360Z,85
2022-12-31T17:58:30.068Z,97
2022-12-31T18:08:30.755Z,100
2022-12-31T18:18:31.065Z,100
2022-12-31T18:28:31.998Z,100
2022-12-31T18:38:32.885Z,100
2022-12-31T18:48:33.370Z,100
2022-12-31T18:58:33.889Z,100
2022-12-31T19:08:34.619Z,100
2022-12-31T19:18:34.952Z,100
2022-12-31T19:28:35.393Z,100
2022-12-31T19:38:35.828Z,100
2022-12-31T19:48:36.345Z,100
2022-12-31T19:58:37.364Z,100
2022-12-31T20:08:37.740Z,100
2022-12-31T20:18:38.672Z,100
2022-12-31T20:28:39.526Z,100
2022-12-31T20:38:40.489Z,100
2022-12-31T20:48:41.042Z,100
2022-12-31T20:58:41.676Z,100
2022-12-31T21:08:41.808Z,100
2022-12-31T21:18:42.271Z,100
2022-12-31T21:28:42.983Z,100
2022-12-31T21:38:43.215Z,100
2022-12-31T21:48:43.782Z,100
2022-12-31T22:08:44.836Z,100
2022-12-31T22:18:45.726Z,100
2022-12-31T22:28:45.862Z,100
2022-12-31T22:38:46.272Z,100
2022-12-31T22:48:46.455Z,100
2022-12-31T22:58:47.224Z,100
2022-12-31T23:08:47.797Z,100
2022-12-31T23:18:48.463Z,100
2022-12-31T23:28:49.357Z,100
2022-12-31T23:38:50.100Z,100
2022-12-31T23:48:50.544Z,100
2022-12-31T23:58:50.631Z,100
